Virtual LH

Virtual LH. There's no better way to fly
Since 2013.



AIRPORT MAP

METAR AND TAF INFORMATION

METAR FOR EPWR
ADDS - METARS form results

(0605 UTC 18 January 2019)
Data provider http://aviationweather.gov/metar/data/
 
METAR text: EPWR 180600Z 28012KT 9999 FEW025 SCT045 01/M03 Q1008
Conditions at: EPWR (WROCLAW/STRACHOW, PL) observed 0600 UTC 18 January 2019
Temperature: 1.0°C (34°F)
Dewpoint: -3.0°C (27°F) [RH = 75%]
Pressure (altimeter): 29.76 inches Hg (1008.0 mb)
Winds: from the W (280 degrees) at 14 MPH (12 knots; 6.2 m/s)
Visibility: 6 or more miles (10+ km)
Ceiling: at least 12,000 feet AGL
Clouds: few clouds at 2500 feet AGL
scattered clouds at 4500 feet AGL
Weather: no significant weather observed at this time

METAR text: EPWR 180530Z 28016KT 9999 FEW025 BKN043 01/M02 Q1008
Conditions at: EPWR (WROCLAW/STRACHOW, PL) observed 0530 UTC 18 January 2019
Temperature: 1.0°C (34°F)
Dewpoint: -2.0°C (28°F) [RH = 80%]
Pressure (altimeter): 29.76 inches Hg (1008.0 mb)
Winds: from the W (280 degrees) at 18 MPH (16 knots; 8.2 m/s)
Visibility: 6 or more miles (10+ km)
Ceiling: 4300 feet AGL
Clouds: few clouds at 2500 feet AGL
broken clouds at 4300 feet AGL
Weather: no significant weather observed at this time

Forecast for: EPWR (WROCLAW/STRACHOW, PL)
Text: TAF EPWR 180530Z 1806/1906 27014KT 9999 BKN030
Forecast period: 0600 UTC 18 January 2019 to 0600 UTC 19 January 2019
Forecast type: FROM: standard forecast or significant change
Winds: from the W (270 degrees) at 16 MPH (14 knots; 7.2 m/s)
Visibility: 6 or more miles 10+ km)
Ceiling: 3000 feet AGL
Clouds: broken clouds at 3000 feet AGL
Weather: no significant weather forecast for this period
Text: TEMPO 1807/1813 30018G28KT 1200 SHSN BKN003 BKN008CB
Forecast period: 0700 to 1300 UTC 18 January 2019
Forecast type: TEMPORARY: The following changes expected for less than half the time period
Winds: from the WNW (300 degrees) at 21 MPH (18 knots; 9.3 m/s)
gusting to 32 MPH (28 knots; 14.4 m/s)
Visibility: 0.75 miles (1.21 km)
Ceiling: 300 feet AGL
Clouds: broken clouds at 300 feet AGL
broken clouds at 800 feet AGL
Weather: SHSN  (snow showers)

RUNWAY INFORMATION

Runway 12 Runway length 8202 ft Runway width 197 ft
Runway elevation 404 ft Runway displaced threshold 0 ft Runway heading 116
Runway 30 Runway length 8202 ft Runway width 197 ft
Runway elevation 400 ft Runway displaced threshold 0 ft Runway heading 296

AIRPORT FREQUENCIES

Type TWR Name WROCLAW TW Frequency 127.225 MHZ

AIRPORT NEAR NAVIGATION AIDS

Type NDB Name Wroclaw Frequency 255 KHZ
Type NDB Name Wroclaw Frequency 525 KHZ
Type VOR-DME Name Trzebnica Frequency 113600 KHZ